Time;durP1;ratioP1;P1;durP2;ratioP2;P2;SDS_P1;SDS_P2;PMS_P1;PMS_P2;Temp;Humidity;BMP_temperature;BMP_pressure;BME280_temperature;BME280_humidity;BME280_pressure;Samples;Min_cycle;Max_cycle;Signal;HPM_P1;HPM_P2
2022/12/15 00:41:30;;;;;;;1.10;1.10;;;-3.80;99.90;;;;;;6158424;23;20118;-92
2022/12/15 00:44:08;;;;;;;0.73;0.73;;;-3.10;99.90;;;;;;6133663;23;20021;-90
2022/12/15 00:47:05;;;;;;;;;;;;;;;;;;;;;
2022/12/15 01:21:35;;;;;;;0.30;0.30;;;-4.80;99.90;;;;;;6245037;23;20031;-95
2022/12/15 01:24:21;;;;;;;1.75;0.95;;;-2.80;99.90;;;;;;6219462;23;20049;-92
2022/12/15 01:26:57;;;;;;;1.52;0.47;;;-3.60;99.90;;;;;;6220058;23;20016;-92
2022/12/15 01:29:38;;;;;;;;;;;;;;;;;;;;;
2022/12/15 01:32:22;;;;;;;4.57;1.85;;;-3.40;99.90;;;;;;6222308;23;20019;-92
2022/12/15 01:34:56;;;;;;;1.85;0.63;;;-4.40;99.90;;;;;;6219117;23;20086;-91
2022/12/15 01:37:22;;;;;;;1.10;0.60;;;-3.10;99.90;;;;;;6194220;23;20116;-92
2022/12/15 01:42:54;;;;;;;2.13;0.75;;;-2.90;99.90;;;;;;6225640;23;20016;-92
2022/12/15 01:45:46;;;;;;;0.60;0.60;;;-2.40;99.90;;;;;;6195102;23;20387;-90
2022/12/15 01:48:28;;;;;;;;;;;;;;;;;;;;;
2022/12/15 01:51:02;;;;;;;0.03;0.03;;;-3.90;99.90;;;;;;6244630;23;20096;-91
2022/12/15 01:53:52;;;;;;;0.90;0.35;;;-2.90;99.90;;;;;;6219711;23;20051;-91
2022/12/15 01:56:28;;;;;;;1.65;0.52;;;-4.50;99.90;;;;;;6219182;23;20047;-92
2022/12/15 01:59:19;;;;;;;;;;;;;;;;;;;;;
2022/12/15 02:02:06;;;;;;;2.00;0.80;;;-2.90;99.90;;;;;;6245010;23;20020;-92
2022/12/15 02:04:41;;;;;;;3.25;1.23;;;-2.90;99.90;;;;;;6244464;23;20384;-92
2022/12/15 02:07:12;;;;;;;0.50;0.25;;;-3.00;99.90;;;;;;6220699;23;20016;-92
2022/12/15 02:09:45;;;;;;;0.55;0.47;;;-3.70;99.90;;;;;;6219740;23;20020;-92
2022/12/15 02:12:46;;;;;;;0.77;0.77;;;-3.30;99.90;;;;;;6220401;23;20054;-92
2022/12/15 02:15:53;;;;;;;0.60;0.60;;;-4.90;99.90;;;;;;6219846;23;20023;-92
2022/12/15 02:18:52;;;;;;;0.40;0.40;;;-4.80;99.90;;;;;;6220351;23;20012;-92
2022/12/15 02:21:43;;;;;;;4.53;0.22;;;-4.40;99.90;;;;;;6185563;23;20403;-91
2022/12/15 02:24:41;;;;;;;1.60;0.40;;;-4.60;99.90;;;;;;6220265;23;20020;-92
2022/12/15 02:27:34;;;;;;;0.67;0.33;;;-3.80;99.90;;;;;;6146608;23;20038;-92
2022/12/15 02:30:44;;;;;;;3.58;0.65;;;-3.90;99.90;;;;;;6219624;23;20251;-92
2022/12/15 02:33:41;;;;;;;0.93;0.28;;;-3.90;99.90;;;;;;6164797;23;20408;-91
2022/12/15 02:36:47;;;;;;;0.85;0.85;;;-3.00;99.90;;;;;;6217675;23;20066;-92
2022/12/15 02:39:24;;;;;;;1.17;0.47;;;-2.60;99.90;;;;;;6217942;23;20091;-91
2022/12/15 02:41:53;;;;;;;1.20;1.13;;;-4.60;99.90;;;;;;6217633;23;20020;-92
2022/12/15 02:44:37;;;;;;;1.02;0.82;;;-4.00;99.90;;;;;;6218974;23;20062;-92
2022/12/15 02:47:31;;;;;;;2.00;0.50;;;-3.10;99.90;;;;;;6218171;23;20020;-92
2022/12/15 02:50:19;;;;;;;1.85;0.38;;;-4.00;99.90;;;;;;6218834;23;20017;-92
2022/12/15 02:53:19;;;;;;;;;;;;;;;;;;;;;
2022/12/15 02:56:28;;;;;;;0.93;0.90;;;-4.10;99.90;;;;;;6245283;23;20373;-92
2022/12/15 02:59:14;;;;;;;;;;;-4.90;99.90;;;;;;6097025;23;20450;-92
2022/12/15 03:01:59;;;;;;;0.15;0.15;;;-3.90;99.90;;;;;;6165970;23;19916;-92
2022/12/15 03:04:32;;;;;;;1.95;1.42;;;-3.20;99.90;;;;;;6169013;23;20013;-89
2022/12/15 03:07:14;;;;;;;0.55;0.55;;;-3.90;99.90;;;;;;6172762;23;20072;-90
2022/12/15 03:09:43;;;;;;;0.30;0.30;;;-3.10;99.90;;;;;;6173803;23;20155;-90
2022/12/15 03:12:13;;;;;;;0.15;0.15;;;-3.80;99.90;;;;;;6172555;23;20008;-91
2022/12/15 03:14:44;;;;;;;0.70;0.65;;;-3.10;99.90;;;;;;6165529;23;20071;-92
2022/12/15 03:17:18;;;;;;;0.73;0.73;;;-2.60;99.90;;;;;;6142076;23;20013;-92
2022/12/15 03:19:54;;;;;;;0.50;0.50;;;-2.70;99.90;;;;;;6169408;23;20099;-92
2022/12/15 03:22:25;;;;;;;5.63;1.00;;;-2.70;99.90;;;;;;6198275;23;20017;-92
2022/12/15 03:25:01;;;;;;;0.47;0.47;;;-2.70;99.90;;;;;;6149194;23;20075;-94
2022/12/15 03:27:30;;;;;;;0.77;0.60;;;-3.90;99.90;;;;;;6150644;23;20401;-92
2022/12/15 03:30:07;;;;;;;3.20;0.30;;;-2.90;99.90;;;;;;6163188;23;20103;-92
2022/12/15 03:32:45;;;;;;;0.90;0.90;;;-4.80;99.90;;;;;;6139680;23;20020;-91
2022/12/15 03:35:13;;;;;;;0.20;0.20;;;-3.10;99.90;;;;;;6117482;23;20020;-92
2022/12/15 03:37:50;;;;;;;0.13;0.13;;;-5.00;99.90;;;;;;6139679;23;20017;-92
2022/12/15 03:40:26;;;;;;;1.17;0.40;;;-2.70;99.90;;;;;;6137312;23;20021;-92
2022/12/15 03:42:54;;;;;;;5.40;1.20;;;-2.80;99.90;;;;;;6114972;23;20028;-94
2022/12/15 03:45:49;;;;;;;0.15;0.15;;;-4.00;99.90;;;;;;6188426;23;20059;-92
2022/12/15 03:51:30;;;;;;;;;;;;;;;;;;;;;
2022/12/15 03:54:01;;;;;;;0.40;0.40;;;-4.10;99.90;;;;;;6165205;23;20017;-94
2022/12/15 03:56:39;;;;;;;1.35;0.82;;;-3.70;99.90;;;;;;6139658;23;20450;-92
2022/12/15 03:59:28;;;;;;;;;;;;;;;;;;;;;
2022/12/15 04:02:07;;;;;;;0.95;0.45;;;-3.50;99.90;;;;;;6195361;23;20030;-94
2022/12/15 04:04:36;;;;;;;1.45;0.77;;;-4.80;99.90;;;;;;6170656;23;20012;-92
2022/12/15 04:07:13;;;;;;;0.53;0.17;;;-2.70;99.90;;;;;;6192955;23;20247;-92
2022/12/15 04:09:39;;;;;;;0.32;0.32;;;-3.50;99.90;;;;;;6191289;23;20052;-93
2022/12/15 04:12:23;;;;;;;0.30;0.30;;;-2.80;99.90;;;;;;6193444;23;20023;-92
2022/12/15 04:14:58;;;;;;;1.88;0.98;;;-3.70;99.90;;;;;;6192389;23;20020;-92
2022/12/15 04:18:08;;;;;;;;;;;;;;;;;;;;;
2022/12/15 04:20:40;;;;;;;0.82;0.60;;;-2.90;99.90;;;;;;6217159;23;20013;-91
2022/12/15 04:23:08;;;;;;;0.10;0.10;;;-4.10;99.90;;;;;;6192017;23;20019;-91
2022/12/15 05:33:32;;;;;;;0.00;0.00;;;-3.90;99.90;;;;;;6218446;23;20050;-90
2022/12/15 05:36:01;;;;;;;0.30;0.30;;;-4.90;99.90;;;;;;6194371;23;20016;-90
2022/12/15 05:38:36;;;;;;;0.10;0.10;;;-4.00;99.90;;;;;;6192008;23;20945;-90
2022/12/15 05:41:04;;;;;;;0.15;0.15;;;-3.90;99.90;;;;;;6194615;23;20016;-90
2022/12/15 05:43:32;;;;;;;0.88;0.45;;;-2.90;99.90;;;;;;6218822;23;20012;-90
2022/12/15 05:46:02;;;;;;;0.47;0.47;;;-3.00;99.90;;;;;;6219555;23;20016;-86
2022/12/15 05:48:37;;;;;;;0.50;0.50;;;-2.40;99.90;;;;;;6194229;23;20042;-89
2022/12/15 05:51:06;;;;;;;0.35;0.28;;;-2.80;99.90;;;;;;6220167;23;20098;-88
2022/12/15 05:53:32;;;;;;;0.30;0.22;;;-3.80;99.90;;;;;;6193943;23;20054;-85
2022/12/15 05:56:05;;;;;;;2.90;0.20;;;-2.90;99.90;;;;;;6169365;23;20016;-86
2022/12/15 05:58:31;;;;;;;0.95;0.32;;;-3.00;99.90;;;;;;6214863;23;20056;-84
2022/12/15 06:01:27;;;;;;;1.20;0.45;;;-2.40;99.90;;;;;;6219736;23;20031;-86
2022/12/15 06:04:06;;;;;;;0.60;0.50;;;-2.90;99.90;;;;;;6212728;23;20020;-91
2022/12/15 06:06:32;;;;;;;1.23;1.20;;;-2.80;99.90;;;;;;6198052;23;20016;-87
2022/12/15 06:08:58;;;;;;;0.63;0.63;;;-2.60;99.90;;;;;;6245817;23;20020;-91
2022/12/15 06:11:35;;;;;;;0.47;0.33;;;-2.70;99.90;;;;;;6219608;23;20464;-90
2022/12/15 06:14:05;;;;;;;0.13;0.10;;;-3.60;99.90;;;;;;6196287;23;20016;-94
2022/12/15 06:16:43;;;;;;;0.25;0.15;;;-3.90;99.90;;;;;;6250931;23;20000;-96
2022/12/15 06:19:27;;;;;;;0.60;0.35;;;-2.50;99.90;;;;;;6196883;23;20020;-93
2022/12/15 06:21:55;;;;;;;0.57;0.57;;;-2.20;99.90;;;;;;6220319;23;20020;-94
2022/12/15 06:24:26;;;;;;;1.20;0.25;;;-2.20;99.90;;;;;;6219591;23;20016;-93
2022/12/15 06:26:55;;;;;;;0.30;0.30;;;-3.60;99.90;;;;;;6195022;23;20107;-93
2022/12/15 06:29:26;;;;;;;0.68;0.17;;;-3.30;99.90;;;;;;6219043;23;20319;-92
2022/12/15 06:31:57;;;;;;;1.45;0.30;;;-3.40;99.90;;;;;;6194696;23;20016;-93
2022/12/15 06:34:33;;;;;;;0.13;0.13;;;-1.90;99.90;;;;;;6219760;23;20020;-96
2022/12/15 06:37:25;;;;;;;0.17;0.17;;;-3.40;99.90;;;;;;6195023;23;20085;-95
2022/12/15 06:40:03;;;;;;;;;;;;;;;;;;;;;
2022/12/15 06:42:29;;;;;;;0.10;0.10;;;-3.50;99.90;;;;;;6221534;23;20012;-95
2022/12/15 06:45:07;;;;;;;4.30;0.70;;;-3.50;99.90;;;;;;6220104;23;20495;-95
2022/12/15 06:47:38;;;;;;;0.32;0.32;;;-2.20;99.90;;;;;;6196342;23;20020;-96
2022/12/15 06:50:09;;;;;;;0.88;0.38;;;-2.50;99.90;;;;;;6197160;23;20074;-95
2022/12/15 06:52:34;;;;;;;0.32;0.32;;;-3.40;99.90;;;;;;6195463;23;20023;-95
2022/12/15 06:55:11;;;;;;;0.60;0.37;;;-2.30;99.90;;;;;;6220094;23;20095;-94
2022/12/15 06:57:39;;;;;;;1.10;0.65;;;-4.30;99.90;;;;;;6195108;23;20058;-93
2022/12/15 07:00:06;;;;;;;0.30;0.30;;;-2.10;99.90;;;;;;6140324;23;20020;-96
2022/12/15 07:02:39;;;;;;;0.10;0.10;;;-3.50;99.90;;;;;;6164222;23;20043;-95
2022/12/15 07:05:15;;;;;;;0.63;0.35;;;-3.80;99.90;;;;;;6165275;23;20020;-95
2022/12/15 07:07:43;;;;;;;0.55;0.38;;;-3.20;99.90;;;;;;6141037;23;20055;-95
2022/12/15 07:10:18;;;;;;;1.35;1.23;;;-3.00;99.90;;;;;;6164437;23;20020;-95
2022/12/15 07:12:54;;;;;;;1.17;0.80;;;-2.00;99.90;;;;;;6140517;23;20108;-95
2022/12/15 07:15:23;;;;;;;0.63;0.22;;;-2.20;99.90;;;;;;6139584;23;20023;-96
2022/12/15 07:17:57;;;;;;;1.15;0.77;;;-2.90;99.90;;;;;;6163793;23;20044;-95
2022/12/15 07:20:34;;;;;;;0.20;0.20;;;-4.00;99.90;;;;;;6164691;23;20377;-94
2022/12/15 07:23:27;;;;;;;3.92;0.88;;;-2.50;99.90;;;;;;6165331;23;20021;-92
2022/12/15 07:26:07;;;;;;;0.38;0.38;;;-3.70;99.90;;;;;;6165274;23;20023;-94
2022/12/15 07:28:40;;;;;;;0.40;0.40;;;-3.00;99.90;;;;;;6165322;23;20351;-93
2022/12/15 07:31:14;;;;;;;0.03;0.03;;;-1.60;99.90;;;;;;6166837;23;20027;-94
2022/12/15 07:33:52;;;;;;;;;;;;;;;;;;;;;
2022/12/15 07:36:26;;;;;;;1.75;0.70;;;-1.90;99.90;;;;;;6190799;23;20028;-95
2022/12/15 07:38:59;;;;;;;0.65;0.65;;;-3.00;99.90;;;;;;6138638;23;20020;-94
2022/12/15 07:41:26;;;;;;;1.10;0.63;;;-3.90;99.90;;;;;;6162872;23;20027;-92
2022/12/15 07:43:52;;;;;;;0.10;0.10;;;-3.10;99.90;;;;;;6161753;23;20059;-84
2022/12/15 07:46:18;;;;;;;0.30;0.30;;;-2.60;99.90;;;;;;6187068;23;20016;-86
2022/12/15 07:48:45;;;;;;;0.10;0.10;;;-1.80;99.90;;;;;;6186589;23;20027;-91
2022/12/15 07:51:14;;;;;;;0.52;0.52;;;-2.90;99.90;;;;;;6186909;23;20020;-89
2022/12/15 07:53:39;;;;;;;0.35;0.30;;;-3.10;99.90;;;;;;6161663;23;20021;-85
2022/12/15 07:56:15;;;;;;;0.60;0.60;;;-1.90;99.90;;;;;;6162248;23;20073;-89
2022/12/15 07:58:43;;;;;;;0.55;0.55;;;-2.40;99.90;;;;;;6175672;23;20048;-90
2022/12/15 08:01:13;;;;;;;0.25;0.10;;;-2.60;99.90;;;;;;6168728;23;20024;-90
2022/12/15 08:04:09;;;;;;;0.10;0.10;;;-2.30;99.90;;;;;;6217323;23;20095;-90
2022/12/15 08:06:36;;;;;;;1.27;0.65;;;-2.20;99.90;;;;;;6217004;23;20016;-90
2022/12/15 08:09:02;;;;;;;0.57;0.57;;;-3.90;99.90;;;;;;6141886;23;20672;-90
2022/12/15 08:11:38;;;;;;;;;;;;;;;;;;;;;
2022/12/15 08:14:07;;;;;;;0.63;0.57;;;-1.80;99.90;;;;;;6216257;23;20016;-88
2022/12/15 08:16:38;;;;;;;0.10;0.10;;;-2.90;99.90;;;;;;6191555;23;20516;-88
2022/12/15 08:19:05;;;;;;;0.20;0.20;;;-2.90;99.90;;;;;;6167994;23;20059;-86
2022/12/15 08:21:34;;;;;;;1.20;0.40;;;-2.40;99.90;;;;;;6193780;23;20397;-86
2022/12/15 08:23:59;;;;;;;0.38;0.25;;;-1.50;99.90;;;;;;6195281;23;20524;-89
2022/12/15 08:26:39;;;;;;;0.57;0.57;;;-2.00;99.90;;;;;;6194890;23;20066;-89
2022/12/15 08:29:12;;;;;;;0.50;0.35;;;-2.50;99.90;;;;;;6173344;23;20020;-89
2022/12/15 08:31:41;;;;;;;0.32;0.32;;;-1.30;99.90;;;;;;6194944;23;20020;-89
2022/12/15 08:34:08;;;;;;;0.82;0.65;;;-0.10;99.90;;;;;;6220141;23;20016;-89
2022/12/15 08:36:42;;;;;;;2.50;0.45;;;-1.50;99.90;;;;;;6194289;23;20141;-89
2022/12/15 08:39:35;;;;;;;0.10;0.10;;;0.00;99.90;;;;;;6196206;23;20016;-88
2022/12/15 08:42:14;;;;;;;1.35;0.77;;;-2.70;99.90;;;;;;6220135;23;20019;-90
2022/12/15 08:44:50;;;;;;;0.45;0.45;;;-1.60;99.90;;;;;;6194709;23;20039;-90
2022/12/15 08:47:15;;;;;;;0.30;0.28;;;-0.70;99.90;;;;;;6195172;23;20016;-91
2022/12/15 08:49:43;;;;;;;3.50;0.63;;;-2.20;99.90;;;;;;6194042;23;20038;-90
2022/12/15 08:52:27;;;;;;;0.38;0.38;;;-0.40;99.90;;;;;;6194286;23;20104;-91
2022/12/15 08:54:54;;;;;;;1.33;0.60;;;-0.40;99.90;;;;;;6194558;23;20086;-91
2022/12/15 08:57:20;;;;;;;0.73;0.30;;;-0.80;99.90;;;;;;6194002;23;20012;-90
2022/12/15 08:59:45;;;;;;;0.32;0.32;;;-0.80;99.90;;;;;;6194157;23;20448;-90
2022/12/15 09:02:26;;;;;;;0.40;0.40;;;-0.70;99.90;;;;;;6218366;23;20082;-92
2022/12/15 09:04:54;;;;;;;0.40;0.40;;;-1.50;99.90;;;;;;6218695;23;20020;-91
2022/12/15 09:07:22;;;;;;;2.25;0.40;;;0.60;99.90;;;;;;6192938;23;20066;-88
2022/12/15 09:09:50;;;;;;;0.50;0.50;;;1.20;99.90;;;;;;6193628;23;20051;-87
2022/12/15 09:12:16;;;;;;;1.77;0.40;;;-0.30;99.90;;;;;;6193820;23;20059;-90
2022/12/15 09:14:42;;;;;;;0.57;0.40;;;1.20;99.90;;;;;;6195532;23;20027;-84
2022/12/15 09:17:07;;;;;;;3.10;1.13;;;0.20;99.90;;;;;;6220350;23;20070;-87
2022/12/15 09:19:36;;;;;;;1.75;0.40;;;1.90;99.90;;;;;;6193726;23;20066;-89
2022/12/15 09:22:06;;;;;;;0.15;0.15;;;1.50;99.90;;;;;;6168657;23;20018;-88
2022/12/15 09:24:34;;;;;;;0.95;0.80;;;0.20;99.90;;;;;;6218429;23;20023;-89
2022/12/15 09:27:03;;;;;;;0.22;0.22;;;1.90;99.90;;;;;;6193145;23;20016;-88
2022/12/15 09:29:29;;;;;;;2.33;0.77;;;1.60;99.90;;;;;;6193848;23;20020;-90
2022/12/15 09:31:55;;;;;;;0.77;0.77;;;0.10;99.90;;;;;;6218015;23;20065;-89
2022/12/15 09:34:20;;;;;;;1.17;0.37;;;1.60;99.90;;;;;;6217680;23;20279;-90
2022/12/15 09:36:46;;;;;;;0.30;0.30;;;0.40;99.90;;;;;;6192728;23;20016;-91
2022/12/15 09:39:14;;;;;;;0.20;0.20;;;1.90;99.90;;;;;;6168304;23;20102;-89
2022/12/15 09:41:41;;;;;;;0.70;0.60;;;0.50;99.90;;;;;;6145329;23;20012;-89
2022/12/15 09:44:16;;;;;;;1.15;0.68;;;0.50;99.90;;;;;;6219485;23;20019;-89
2022/12/15 09:46:55;;;;;;;0.60;0.60;;;0.60;99.90;;;;;;6219035;23;20015;-89
2022/12/15 09:49:24;;;;;;;1.30;0.70;;;0.80;99.90;;;;;;6194208;23;20008;-88
2022/12/15 09:51:59;;;;;;;0.98;0.52;;;1.10;99.90;;;;;;6193866;23;20090;-88
2022/12/15 09:54:30;;;;;;;0.47;0.47;;;1.30;99.90;;;;;;6194917;23;20013;-88
2022/12/15 09:56:59;;;;;;;0.50;0.50;;;3.00;99.90;;;;;;6193916;23;20020;-88
2022/12/15 09:59:42;;;;;;;0.30;0.30;;;1.70;99.90;;;;;;6193383;23;20027;-88
2022/12/15 10:02:29;;;;;;;0.70;0.50;;;3.30;99.90;;;;;;6194664;23;20020;-88
2022/12/15 10:05:12;;;;;;;0.40;0.40;;;2.10;99.90;;;;;;6193920;23;20016;-88
2022/12/15 10:07:45;;;;;;;1.08;0.50;;;2.30;99.90;;;;;;6219422;23;20491;-88
2022/12/15 10:10:31;;;;;;;0.88;0.68;;;2.60;99.90;;;;;;6194826;23;20019;-86
2022/12/15 10:13:02;;;;;;;0.40;0.40;;;2.80;99.90;;;;;;6195621;23;20012;-87
2022/12/15 10:15:36;;;;;;;0.95;0.38;;;3.00;99.90;;;;;;6194354;23;20027;-88
2022/12/15 10:18:26;;;;;;;2.10;0.98;;;3.10;99.90;;;;;;6193766;23;20449;-87
2022/12/15 10:21:00;;;;;;;0.47;0.40;;;4.40;99.90;;;;;;6192684;23;20016;-87
2022/12/15 10:23:25;;;;;;;1.00;0.57;;;3.60;99.90;;;;;;6219423;23;20138;-87
2022/12/15 10:26:13;;;;;;;0.60;0.60;;;3.50;99.90;;;;;;6168875;23;20080;-88
2022/12/15 10:29:06;;;;;;;1.40;1.30;;;3.60;99.90;;;;;;6218921;23;20110;-87
2022/12/15 10:31:52;;;;;;;0.80;0.70;;;3.80;99.90;;;;;;6219495;23;20270;-87
2022/12/15 10:34:25;;;;;;;1.60;0.73;;;5.20;99.90;;;;;;6193790;23;20035;-87
2022/12/15 10:36:52;;;;;;;1.40;1.00;;;4.00;99.90;;;;;;6193532;23;20020;-88
2022/12/15 10:39:19;;;;;;;1.02;0.47;;;4.50;99.90;;;;;;6169382;23;20012;-88
2022/12/15 10:41:47;;;;;;;1.02;0.57;;;4.30;99.90;;;;;;6218946;23;20015;-86
2022/12/15 10:44:24;;;;;;;1.75;1.65;;;5.00;99.90;;;;;;6194083;23;20012;-88
2022/12/15 10:46:56;;;;;;;0.30;0.30;;;4.50;99.90;;;;;;6218530;23;20008;-88
2022/12/15 10:49:24;;;;;;;0.40;0.40;;;5.30;99.90;;;;;;6218981;23;20091;-87
2022/12/15 10:51:59;;;;;;;1.90;1.77;;;4.80;99.90;;;;;;6218603;23;20104;-87
2022/12/15 10:54:33;;;;;;;0.20;0.20;;;5.00;99.90;;;;;;6193638;23;20091;-88
2022/12/15 10:57:02;;;;;;;0.60;0.43;;;5.20;99.90;;;;;;6218343;23;20463;-87
2022/12/15 10:59:35;;;;;;;1.08;0.85;;;5.30;99.90;;;;;;6193361;23;20012;-87
2022/12/15 11:02:19;;;;;;;0.50;0.35;;;5.30;99.90;;;;;;6218646;23;20142;-87
2022/12/15 11:05:15;;;;;;;0.70;0.70;;;5.30;99.90;;;;;;6194018;23;20098;-87
2022/12/15 11:07:46;;;;;;;0.17;0.17;;;5.40;99.90;;;;;;6218812;23;20425;-86
2022/12/15 11:10:23;;;;;;;0.70;0.70;;;5.40;99.90;;;;;;6245092;23;20329;-87
2022/12/15 11:13:09;;;;;;;0.82;0.55;;;5.40;99.90;;;;;;6219037;23;20012;-86
2022/12/15 11:15:55;;;;;;;0.47;0.47;;;5.90;99.90;;;;;;6219006;23;20012;-86
2022/12/15 11:18:36;;;;;;;0.75;0.73;;;5.50;99.90;;;;;;6218591;23;20008;-87
2022/12/15 11:21:12;;;;;;;0.45;0.43;;;5.60;99.90;;;;;;6218523;23;20008;-86
2022/12/15 11:24:01;;;;;;;0.75;0.32;;;5.60;99.90;;;;;;6219110;23;20062;-86
2022/12/15 11:26:45;;;;;;;0.52;0.50;;;6.30;99.90;;;;;;6177795;23;20047;-87
2022/12/15 11:29:36;;;;;;;0.25;0.15;;;5.50;99.90;;;;;;6193236;23;20019;-86
2022/12/15 11:32:02;;;;;;;0.75;0.65;;;5.40;99.90;;;;;;6193065;23;20051;-87
2022/12/15 11:34:44;;;;;;;0.50;0.32;;;5.30;99.90;;;;;;6193759;23;20018;-86
2022/12/15 11:37:28;;;;;;;0.30;0.30;;;5.20;99.90;;;;;;6193311;23;20014;-86
2022/12/15 11:40:18;;;;;;;1.42;0.80;;;5.20;99.90;;;;;;6218766;23;20016;-90
2022/12/15 11:43:02;;;;;;;0.43;0.43;;;5.10;99.90;;;;;;6193542;23;20044;-84
2022/12/15 11:45:55;;;;;;;1.23;0.40;;;5.20;99.90;;;;;;6195172;23;20376;-85
2022/12/15 11:48:26;;;;;;;0.93;0.40;;;5.30;99.90;;;;;;6195568;23;20012;-85
2022/12/15 11:51:14;;;;;;;0.30;0.30;;;5.30;99.90;;;;;;6196289;23;20302;-88
2022/12/15 11:53:42;;;;;;;;;;;5.30;99.90;;;;;;6195542;23;20102;-87
2022/12/15 11:56:30;;;;;;;0.70;0.70;;;5.30;99.90;;;;;;6194729;23;19990;-86
2022/12/15 11:59:07;;;;;;;0.60;0.40;;;5.40;99.90;;;;;;6205244;23;20039;-85
2022/12/15 12:01:59;;;;;;;0.63;0.63;;;5.40;99.90;;;;;;6219403;23;20024;-86
2022/12/15 12:04:29;;;;;;;0.40;0.40;;;5.40;99.90;;;;;;6219442;23;20048;-86
2022/12/15 12:07:11;;;;;;;2.00;0.47;;;5.50;99.90;;;;;;6219511;23;20405;-87
2022/12/15 12:09:42;;;;;;;1.27;0.73;;;5.50;99.90;;;;;;6220171;23;20012;-82
2022/12/15 12:12:31;;;;;;;0.35;0.35;;;5.50;99.90;;;;;;6220399;23;20016;-85
2022/12/15 12:15:13;;;;;;;1.73;0.70;;;5.50;99.90;;;;;;6220787;23;20012;-83
2022/12/15 12:17:44;;;;;;;0.50;0.50;;;5.60;99.90;;;;;;6221719;23;20015;-86
2022/12/15 12:20:21;;;;;;;0.40;0.28;;;5.70;99.90;;;;;;6220846;23;20047;-88
2022/12/15 12:23:01;;;;;;;2.88;0.70;;;5.80;99.90;;;;;;6245917;23;20084;-88
2022/12/15 12:25:29;;;;;;;0.70;0.63;;;5.80;99.90;;;;;;6245651;23;20008;-88
2022/12/15 12:27:59;;;;;;;1.45;0.70;;;5.90;99.90;;;;;;6220340;23;20016;-88
2022/12/15 12:30:36;;;;;;;0.52;0.47;;;5.40;99.90;;;;;;6245543;23;20456;-88
2022/12/15 12:33:31;;;;;;;0.50;0.45;;;5.80;99.90;;;;;;6248273;23;20008;-87
2022/12/15 12:36:11;;;;;;;1.10;0.50;;;5.90;99.90;;;;;;6225848;23;20019;-88
2022/12/15 12:38:46;;;;;;;0.95;0.68;;;5.90;99.90;;;;;;6245809;23;20429;-87
2022/12/15 12:41:35;;;;;;;0.43;0.43;;;5.90;99.90;;;;;;6220125;23;20095;-87
2022/12/15 12:44:19;;;;;;;1.45;0.70;;;5.90;99.90;;;;;;6220298;23;20374;-87
2022/12/15 12:46:50;;;;;;;1.45;0.77;;;5.90;99.90;;;;;;6219325;23;20051;-87
2022/12/15 12:49:26;;;;;;;1.30;0.50;;;6.00;99.90;;;;;;6219607;23;20019;-87
2022/12/15 12:51:57;;;;;;;0.73;0.70;;;6.00;99.90;;;;;;6220523;23;20019;-87
2022/12/15 12:54:35;;;;;;;1.55;0.70;;;6.10;99.90;;;;;;6219349;23;20312;-86
2022/12/15 12:57:41;;;;;;;0.40;0.40;;;6.20;99.90;;;;;;6219172;23;20023;-87
2022/12/15 13:00:09;;;;;;;0.63;0.52;;;6.20;99.90;;;;;;6219009;23;20119;-87
2022/12/15 13:02:53;;;;;;;0.28;0.28;;;6.10;99.90;;;;;;6220500;23;20012;-86
2022/12/15 13:05:36;;;;;;;0.40;0.40;;;6.10;99.90;;;;;;6219678;23;20056;-86
2022/12/15 13:08:05;;;;;;;0.70;0.63;;;6.20;99.90;;;;;;6195270;23;20262;-86
2022/12/15 13:10:42;;;;;;;0.32;0.32;;;6.20;99.90;;;;;;6245359;23;20012;-86
2022/12/15 13:13:32;;;;;;;2.08;0.55;;;6.30;99.90;;;;;;6244897;23;20082;-88
2022/12/15 13:16:07;;;;;;;0.47;0.47;;;6.30;99.90;;;;;;6220072;23;20054;-87
2022/12/15 13:19:03;;;;;;;1.35;0.75;;;6.30;99.90;;;;;;6220125;23;20066;-86
2022/12/15 13:21:43;;;;;;;0.63;0.50;;;6.10;99.90;;;;;;6219346;23;20023;-86
2022/12/15 13:24:31;;;;;;;0.52;0.52;;;6.20;99.90;;;;;;6219260;23;20306;-88
2022/12/15 13:27:03;;;;;;;0.77;0.63;;;6.10;99.90;;;;;;6219839;23;20016;-87
2022/12/15 13:29:29;;;;;;;0.20;0.20;;;6.10;99.90;;;;;;6219478;23;20016;-86
2022/12/15 13:31:55;;;;;;;1.40;0.80;;;6.20;99.90;;;;;;6194971;23;20023;-86
2022/12/15 13:34:23;;;;;;;1.13;0.70;;;6.10;99.90;;;;;;6219482;23;20321;-86
2022/12/15 13:36:52;;;;;;;0.60;0.60;;;6.10;99.90;;;;;;6245110;23;20008;-87
2022/12/15 13:39:17;;;;;;;1.23;0.40;;;7.10;99.90;;;;;;6219305;23;20456;-86
2022/12/15 13:41:46;;;;;;;0.30;0.30;;;5.80;99.90;;;;;;6244560;23;20016;-88
2022/12/15 13:44:35;;;;;;;0.65;0.50;;;5.50;99.90;;;;;;6217465;23;20016;-87
2022/12/15 13:47:11;;;;;;;0.45;0.45;;;5.30;99.90;;;;;;6192246;23;20016;-85
2022/12/15 13:49:58;;;;;;;0.57;0.57;;;5.30;99.90;;;;;;6244652;23;20073;-86
2022/12/15 13:52:49;;;;;;;1.90;0.55;;;5.30;99.90;;;;;;6219126;23;20032;-87
2022/12/15 13:55:25;;;;;;;0.40;0.40;;;5.40;99.90;;;;;;6219257;23;20039;-87
2022/12/15 13:58:13;;;;;;;1.15;0.40;;;5.50;99.90;;;;;;6219437;23;20103;-86
2022/12/15 14:00:49;;;;;;;0.88;0.68;;;5.60;99.90;;;;;;6219306;23;20016;-86
2022/12/15 14:03:14;;;;;;;1.52;0.50;;;5.50;99.90;;;;;;6218648;23;20027;-87
2022/12/15 14:05:52;;;;;;;0.40;0.40;;;5.50;99.90;;;;;;6219555;23;20013;-86
2022/12/15 14:08:19;;;;;;;0.93;0.40;;;5.40;99.90;;;;;;6218685;23;20432;-87
2022/12/15 14:10:50;;;;;;;1.10;0.40;;;5.80;99.90;;;;;;6219481;23;20016;-87
2022/12/15 14:13:29;;;;;;;1.60;1.00;;;5.20;99.90;;;;;;6244061;23;20050;-87
2022/12/15 14:15:59;;;;;;;1.50;0.70;;;5.00;99.90;;;;;;6244734;23;20099;-87
2022/12/15 14:18:29;;;;;;;1.05;0.93;;;5.80;99.90;;;;;;6218609;23;20020;-87
2022/12/15 14:20:59;;;;;;;0.73;0.57;;;4.50;99.90;;;;;;6219597;23;20020;-87
2022/12/15 14:23:27;;;;;;;0.50;0.50;;;4.20;99.90;;;;;;6218744;23;20016;-86
2022/12/15 14:26:03;;;;;;;0.55;0.55;;;5.10;99.90;;;;;;6219163;23;20031;-86
2022/12/15 14:28:35;;;;;;;1.33;0.80;;;3.80;99.90;;;;;;6218474;23;20019;-87
2022/12/15 14:31:10;;;;;;;1.10;0.80;;;3.70;99.90;;;;;;6219192;23;20095;-85
2022/12/15 14:33:40;;;;;;;0.50;0.50;;;2.60;99.90;;;;;;6243721;23;20286;-85
2022/12/15 14:36:12;;;;;;;0.73;0.73;;;2.30;99.90;;;;;;6220439;23;20051;-85
2022/12/15 14:38:42;;;;;;;0.75;0.32;;;3.90;99.90;;;;;;6218354;23;20444;-85
2022/12/15 14:41:19;;;;;;;0.68;0.50;;;3.20;99.90;;;;;;6219134;23;20049;-85
2022/12/15 14:43:48;;;;;;;0.93;0.52;;;3.10;99.90;;;;;;6219276;23;20051;-84
2022/12/15 14:46:17;;;;;;;0.85;0.40;;;3.00;99.90;;;;;;6244132;23;20047;-85
2022/12/15 14:48:51;;;;;;;1.75;1.00;;;4.20;99.90;;;;;;6217879;23;20024;-85
2022/12/15 14:51:17;;;;;;;2.33;1.00;;;2.90;99.90;;;;;;6243964;23;20087;-87
2022/12/15 14:53:53;;;;;;;4.25;0.73;;;2.90;99.90;;;;;;6245672;23;20027;-86
2022/12/15 14:56:26;;;;;;;3.03;0.80;;;4.20;99.90;;;;;;6219084;23;20016;-87
2022/12/15 14:59:04;;;;;;;0.35;0.35;;;4.00;99.90;;;;;;6217728;23;20020;-86
2022/12/15 15:01:48;;;;;;;1.05;0.45;;;2.60;99.90;;;;;;6242904;23;20023;-85
2022/12/15 15:04:28;;;;;;;2.13;0.98;;;2.50;99.90;;;;;;6218998;23;20111;-82
2022/12/15 15:07:00;;;;;;;1.70;0.77;;;3.10;99.90;;;;;;6218823;23;20460;-86
2022/12/15 15:09:42;;;;;;;1.30;0.57;;;2.20;99.90;;;;;;6218286;23;20034;-85
2022/12/15 15:12:17;;;;;;;1.05;0.88;;;2.20;99.90;;;;;;6243996;23;20453;-86
2022/12/15 15:14:57;;;;;;;0.85;0.85;;;3.60;99.90;;;;;;6218307;23;20090;-86
2022/12/15 15:17:54;;;;;;;1.77;1.10;;;2.00;99.90;;;;;;6243593;23;20042;-88
2022/12/15 15:20:26;;;;;;;1.13;0.70;;;2.00;99.90;;;;;;6207684;23;20059;-86
2022/12/15 15:23:06;;;;;;;1.35;1.25;;;2.00;99.90;;;;;;6244116;23;20109;-86
2022/12/15 15:25:32;;;;;;;2.10;1.27;;;1.90;99.90;;;;;;6242238;23;20013;-85
2022/12/15 15:28:10;;;;;;;1.73;0.80;;;1.80;99.90;;;;;;6218587;23;20043;-85
2022/12/15 15:31:04;;;;;;;1.35;0.50;;;1.80;99.90;;;;;;6218122;23;20038;-86
2022/12/15 15:33:31;;;;;;;0.80;0.80;;;1.60;99.90;;;;;;6218152;23;20022;-86
2022/12/15 15:36:00;;;;;;;;;;;2.20;99.90;;;;;;6218953;23;20027;-85
2022/12/15 15:38:39;;;;;;;0.80;0.80;;;1.50;99.90;;;;;;6192952;23;19920;-86
2022/12/15 15:41:28;;;;;;;1.10;1.10;;;1.40;99.90;;;;;;6218715;23;20055;-85
2022/12/15 15:43:54;;;;;;;1.65;1.20;;;1.30;99.90;;;;;;6243907;23;20048;-86
2022/12/15 15:46:32;;;;;;;1.73;1.20;;;2.70;99.90;;;;;;6218539;23;20444;-84
2022/12/15 15:49:04;;;;;;;1.80;0.95;;;1.30;99.90;;;;;;6218467;23;20044;-84
2022/12/15 15:51:32;;;;;;;1.75;0.98;;;1.40;99.90;;;;;;6243468;23;20341;-84
2022/12/15 15:54:05;;;;;;;3.85;1.00;;;1.20;99.90;;;;;;6243749;23;20077;-84
2022/12/15 15:56:33;;;;;;;1.00;0.68;;;1.20;99.90;;;;;;6218358;23;20020;-84
2022/12/15 15:59:17;;;;;;;1.85;1.13;;;2.60;99.90;;;;;;6243421;23;20016;-85
2022/12/15 16:01:45;;;;;;;2.63;1.15;;;1.20;99.90;;;;;;6217149;23;20035;-85
2022/12/15 16:04:11;;;;;;;1.27;0.60;;;1.20;99.90;;;;;;6241875;23;20062;-85
2022/12/15 16:06:39;;;;;;;2.93;1.13;;;1.30;99.90;;;;;;6216320;23;20024;-84
2022/12/15 16:09:08;;;;;;;2.53;1.73;;;1.30;99.90;;;;;;6216957;23;20399;-84
2022/12/15 16:11:35;;;;;;;1.15;0.98;;;1.40;99.90;;;;;;6241483;23;20315;-85
2022/12/15 16:14:02;;;;;;;2.35;1.10;;;1.30;99.90;;;;;;6216825;23;20106;-84
2022/12/15 16:16:33;;;;;;;1.05;0.95;;;1.30;99.90;;;;;;6217384;23;20027;-85
2022/12/15 16:19:02;;;;;;;2.60;1.13;;;1.30;99.90;;;;;;6216518;23;20027;-85